sensor_id;sensor_type;location;lat;lon;timestamp;pressure;altitude;pressure_sealevel;temperature;humidity
56558;BME280;43358;50.356;12.456;2023-02-10T00:31:48;97145;;;-8.8;91
56558;BME280;43358;50.356;12.456;2023-02-10T00:32:40;97140;;;-8.8;90.8
56558;BME280;43358;50.356;12.456;2023-02-10T00:33:42;97143;;;-9.4;91.8
56558;BME280;43358;50.356;12.456;2023-02-10T00:34:45;97143;;;-9.3;91.2
56558;BME280;43358;50.356;12.456;2023-02-10T00:38:39;97146;;;-9.3;90.8
56558;BME280;43358;50.356;12.456;2023-02-10T00:39:41;97150;;;-9.3;90.5
56558;BME280;43358;50.356;12.456;2023-02-10T00:40:43;97148;;;-9.3;90.5
56558;BME280;43358;50.356;12.456;2023-02-10T00:41:45;97150;;;-9.3;90
56558;BME280;43358;50.356;12.456;2023-02-10T00:42:47;97151;;;-9.3;90
56558;BME280;43358;50.356;12.456;2023-02-10T00:43:50;97153;;;-9.3;89.9
56558;BME280;43358;50.356;12.456;2023-02-10T00:44:52;97148;;;-9.3;89.8
56558;BME280;43358;50.356;12.456;2023-02-10T00:45:55;97150;;;-9.3;89.6
56558;BME280;43358;50.356;12.456;2023-02-10T00:46:57;97152;;;-9.4;89.5
56558;BME280;43358;50.356;12.456;2023-02-10T00:48:00;97153;;;-9.4;89.6
56558;BME280;43358;50.356;12.456;2023-02-10T00:49:02;97157;;;-9.4;89.3
56558;BME280;43358;50.356;12.456;2023-02-10T00:50:04;97162;;;-9.5;89.3
56558;BME280;43358;50.356;12.456;2023-02-10T00:51:06;97165;;;-9.4;89.8
56558;BME280;43358;50.356;12.456;2023-02-10T00:52:10;97167;;;-9.4;90.1
56558;BME280;43358;50.356;12.456;2023-02-10T01:00:20;97164;;;-9.4;90.1
56558;BME280;43358;50.356;12.456;2023-02-10T01:03:39;97173;;;-9.7;89.8
56558;BME280;43358;50.356;12.456;2023-02-10T01:21:47;97185;;;-9.7;91.5
56558;BME280;43358;50.356;12.456;2023-02-10T01:22:49;97184;;;-9.9;91.7
56558;BME280;43358;50.356;12.456;2023-02-10T01:23:51;97184;;;-9.8;91.5
56558;BME280;43358;50.356;12.456;2023-02-10T01:24:54;97187;;;-9.7;90.6
56558;BME280;43358;50.356;12.456;2023-02-10T01:25:56;97184;;;-9.7;89.9
56558;BME280;43358;50.356;12.456;2023-02-10T01:26:58;97187;;;-9.7;89.9
56558;BME280;43358;50.356;12.456;2023-02-10T01:28:01;97189;;;-9.7;89.6
56558;BME280;43358;50.356;12.456;2023-02-10T01:29:03;97194;;;-9.7;89.4
56558;BME280;43358;50.356;12.456;2023-02-10T01:30:05;97192;;;-9.7;89.2
56558;BME280;43358;50.356;12.456;2023-02-10T01:31:07;97194;;;-9.8;89.2
56558;BME280;43358;50.356;12.456;2023-02-10T01:32:10;97193;;;-9.8;89.2
56558;BME280;43358;50.356;12.456;2023-02-10T01:33:13;97193;;;-9.8;89.3
56558;BME280;43358;50.356;12.456;2023-02-10T01:34:14;97191;;;-9.9;89.5
56558;BME280;43358;50.356;12.456;2023-02-10T01:35:16;97194;;;-9.9;89.6
56558;BME280;43358;50.356;12.456;2023-02-10T01:36:18;97195;;;-9.9;89.9
56558;BME280;43358;50.356;12.456;2023-02-10T01:37:20;97194;;;-9.9;90.2
56558;BME280;43358;50.356;12.456;2023-02-10T02:01:04;97191;;;-10;90.2
56558;BME280;43358;50.356;12.456;2023-02-10T02:01:05;97185;;;-10;90.6
56558;BME280;43358;50.356;12.456;2023-02-10T02:01:44;97185;;;-10.1;90.6
56558;BME280;43358;50.356;12.456;2023-02-10T02:02:44;97185;;;-10.1;90.5
56558;BME280;43358;50.356;12.456;2023-02-10T02:03:44;97183;;;-10.2;90.4
56558;BME280;43358;50.356;12.456;2023-02-10T02:04:46;97190;;;-10.2;90.5
56558;BME280;43358;50.356;12.456;2023-02-10T02:05:44;97191;;;-10.2;90.7
56558;BME280;43358;50.356;12.456;2023-02-10T02:06:45;97190;;;-10.2;90.8
56558;BME280;43358;50.356;12.456;2023-02-10T02:07:47;97190;;;-10.2;90.8
56558;BME280;43358;50.356;12.456;2023-02-10T02:27:46;97202;;;-10.3;88.4
56558;BME280;43358;50.356;12.456;2023-02-10T02:27:52;97198;;;-10.1;88.5
56558;BME280;43358;50.356;12.456;2023-02-10T02:30:01;97197;;;-10.2;88.9
56558;BME280;43358;50.356;12.456;2023-02-10T02:30:59;97197;;;-10.2;89.2
56558;BME280;43358;50.356;12.456;2023-02-10T02:31:58;97197;;;-10.2;89.3
56558;BME280;43358;50.356;12.456;2023-02-10T02:32:59;97198;;;-10.2;89.3
56558;BME280;43358;50.356;12.456;2023-02-10T02:34:15;97198;;;-10.2;89.2
56558;BME280;43358;50.356;12.456;2023-02-10T02:35:04;97202;;;-10.1;89.2
56558;BME280;43358;50.356;12.456;2023-02-10T02:36:06;97203;;;-10.2;89
56558;BME280;43358;50.356;12.456;2023-02-10T02:37:09;97198;;;-10.2;88.7
56558;BME280;43358;50.356;12.456;2023-02-10T02:38:11;97197;;;-10.2;88.7
56558;BME280;43358;50.356;12.456;2023-02-10T02:39:47;97198;;;-10.2;89.1
56558;BME280;43358;50.356;12.456;2023-02-10T02:40:44;97191;;;-10.1;89.5
56558;BME280;43358;50.356;12.456;2023-02-10T02:41:44;97191;;;-10.1;89.3
56558;BME280;43358;50.356;12.456;2023-02-10T02:42:44;97187;;;-10.1;89
56558;BME280;43358;50.356;12.456;2023-02-10T02:43:44;97186;;;-10.1;88.8
56558;BME280;43358;50.356;12.456;2023-02-10T02:44:45;97193;;;-10.1;88.5
56558;BME280;43358;50.356;12.456;2023-02-10T02:45:46;97196;;;-10.1;88.3
56558;BME280;43358;50.356;12.456;2023-02-10T02:46:47;97197;;;-10;87.9
56558;BME280;43358;50.356;12.456;2023-02-10T02:47:48;97196;;;-10.1;87.2
56558;BME280;43358;50.356;12.456;2023-02-10T02:48:48;97196;;;-10.2;87.1
56558;BME280;43358;50.356;12.456;2023-02-10T02:59:59;97196;;;-10.3;88
56558;BME280;43358;50.356;12.456;2023-02-10T02:59:59;97197;;;-10.5;90.1
56558;BME280;43358;50.356;12.456;2023-02-10T03:01:00;97192;;;-10.6;90.7
56558;BME280;43358;50.356;12.456;2023-02-10T04:32:08;97200;;;-10.6;91
56558;BME280;43358;50.356;12.456;2023-02-10T04:32:21;97215;;;-10.6;91.1
56558;BME280;43358;50.356;12.456;2023-02-10T04:33:23;97214;;;-9;91.5
56558;BME280;43358;50.356;12.456;2023-02-10T04:34:25;97217;;;-9;91.4
56558;BME280;43358;50.356;12.456;2023-02-10T04:35:27;97217;;;-8.9;91.4
56558;BME280;43358;50.356;12.456;2023-02-10T04:36:29;97214;;;-8.9;91.5
56558;BME280;43358;50.356;12.456;2023-02-10T04:37:31;97213;;;-9;91.6
56558;BME280;43358;50.356;12.456;2023-02-10T04:38:33;97217;;;-9;91.6
56558;BME280;43358;50.356;12.456;2023-02-10T04:39:35;97219;;;-8.9;91.5
56558;BME280;43358;50.356;12.456;2023-02-10T04:40:37;97218;;;-8.9;91.7
56558;BME280;43358;50.356;12.456;2023-02-10T04:41:39;97218;;;-8.8;91.5
56558;BME280;43358;50.356;12.456;2023-02-10T04:42:41;97220;;;-8.8;91.5
56558;BME280;43358;50.356;12.456;2023-02-10T04:43:43;97223;;;-8.8;91.4
56558;BME280;43358;50.356;12.456;2023-02-10T04:44:46;97222;;;-8.8;91.2
56558;BME280;43358;50.356;12.456;2023-02-10T04:45:48;97223;;;-8.8;91.4
56558;BME280;43358;50.356;12.456;2023-02-10T05:14:32;97233;;;-8.8;92.5
56558;BME280;43358;50.356;12.456;2023-02-10T05:14:32;97238;;;-8.8;92.5
56558;BME280;43358;50.356;12.456;2023-02-10T05:14:48;97245;;;-8.3;91.7
56558;BME280;43358;50.356;12.456;2023-02-10T05:26:53;97243;;;-8.3;92
56558;BME280;43358;50.356;12.456;2023-02-10T05:27:22;97246;;;-8.3;92.1
56558;BME280;43358;50.356;12.456;2023-02-10T05:28:24;97244;;;-7.9;91
56558;BME280;43358;50.356;12.456;2023-02-10T05:30:09;97245;;;-7.9;91.2
56558;BME280;43358;50.356;12.456;2023-02-10T05:30:48;97246;;;-7.9;91.5
56558;BME280;43358;50.356;12.456;2023-02-10T05:31:48;97248;;;-7.9;91.7
56558;BME280;43358;50.356;12.456;2023-02-10T05:32:48;97251;;;-7.9;91.7
56558;BME280;43358;50.356;12.456;2023-02-10T05:33:48;97249;;;-7.9;91.7
56558;BME280;43358;50.356;12.456;2023-02-10T05:34:48;97250;;;-7.9;91.9
56558;BME280;43358;50.356;12.456;2023-02-10T05:39:48;97247;;;-7.8;92.1
56558;BME280;43358;50.356;12.456;2023-02-10T05:40:48;97249;;;-7.8;92.1
56558;BME280;43358;50.356;12.456;2023-02-10T05:41:48;97252;;;-7.8;92.3
56558;BME280;43358;50.356;12.456;2023-02-10T05:42:48;97253;;;-7.8;92.5
56558;BME280;43358;50.356;12.456;2023-02-10T05:43:48;97253;;;-7.9;92.8
56558;BME280;43358;50.356;12.456;2023-02-10T05:45:48;97256;;;-7.9;93.1
56558;BME280;43358;50.356;12.456;2023-02-10T05:46:48;97256;;;-7.9;93.3
56558;BME280;43358;50.356;12.456;2023-02-10T05:47:48;97253;;;-7.9;93.5
56558;BME280;43358;50.356;12.456;2023-02-10T05:50:04;97253;;;-7.8;93.6
56558;BME280;43358;50.356;12.456;2023-02-10T05:50:49;97251;;;-7.8;93.4
56558;BME280;43358;50.356;12.456;2023-02-10T05:51:48;97255;;;-7.7;93.3
56558;BME280;43358;50.356;12.456;2023-02-10T05:52:48;97254;;;-7.7;93.4
56558;BME280;43358;50.356;12.456;2023-02-10T05:53:48;97257;;;-7.6;93.2
56558;BME280;43358;50.356;12.456;2023-02-10T05:54:48;97257;;;-7.6;93
56558;BME280;43358;50.356;12.456;2023-02-10T05:55:48;97257;;;-7.6;93
56558;BME280;43358;50.356;12.456;2023-02-10T05:57:48;97263;;;-7.6;93.1
56558;BME280;43358;50.356;12.456;2023-02-10T05:58:48;97263;;;-7.6;93.2
56558;BME280;43358;50.356;12.456;2023-02-10T05:59:48;97264;;;-7.5;93.3
56558;BME280;43358;50.356;12.456;2023-02-10T06:00:48;97266;;;-7.4;93.2
56558;BME280;43358;50.356;12.456;2023-02-10T06:01:48;97266;;;-7.4;92.8
56558;BME280;43358;50.356;12.456;2023-02-10T06:02:48;97269;;;-7.4;92.7
56558;BME280;43358;50.356;12.456;2023-02-10T06:04:51;97273;;;-7.3;92.7
56558;BME280;43358;50.356;12.456;2023-02-10T06:05:53;97273;;;-7.3;92.3
56558;BME280;43358;50.356;12.456;2023-02-10T06:06:55;97275;;;-7.2;92.2
56558;BME280;43358;50.356;12.456;2023-02-10T06:07:57;97276;;;-7.2;92
56558;BME280;43358;50.356;12.456;2023-02-10T06:09:00;97282;;;-7.2;91.7
56558;BME280;43358;50.356;12.456;2023-02-10T06:10:02;97284;;;-7.2;91.7
56558;BME280;43358;50.356;12.456;2023-02-10T06:11:05;97283;;;-7.3;91.7
56558;BME280;43358;50.356;12.456;2023-02-10T06:12:07;97283;;;-7.3;92.2
56558;BME280;43358;50.356;12.456;2023-02-10T06:13:09;97286;;;-7.3;92.4
56558;BME280;43358;50.356;12.456;2023-02-10T06:16:16;97292;;;-7.3;92.9
56558;BME280;43358;50.356;12.456;2023-02-10T06:17:18;97294;;;-7.3;93
56558;BME280;43358;50.356;12.456;2023-02-10T06:18:20;97290;;;-7.3;93.2
56558;BME280;43358;50.356;12.456;2023-02-10T06:19:23;97291;;;-7.3;93.1
56558;BME280;43358;50.356;12.456;2023-02-10T06:20:25;97292;;;-7.3;93.1
56558;BME280;43358;50.356;12.456;2023-02-10T06:24:08;97294;;;-7.3;93.1
56558;BME280;43358;50.356;12.456;2023-02-10T06:27:45;97300;;;-7.4;93.6
56558;BME280;43358;50.356;12.456;2023-02-10T06:28:34;97303;;;-7.4;93.7
56558;BME280;43358;50.356;12.456;2023-02-10T06:29:36;97307;;;-7.4;93.8
56558;BME280;43358;50.356;12.456;2023-02-10T06:30:38;97309;;;-7.4;93.9
56558;BME280;43358;50.356;12.456;2023-02-10T06:31:40;97309;;;-7.4;94.1
56558;BME280;43358;50.356;12.456;2023-02-10T06:32:42;97307;;;-7.3;94.1
56558;BME280;43358;50.356;12.456;2023-02-10T06:33:44;97304;;;-7.3;93.9
56558;BME280;43358;50.356;12.456;2023-02-10T06:34:46;97306;;;-7.2;93.7
56558;BME280;43358;50.356;12.456;2023-02-10T06:42:35;97311;;;-7.2;93.4
56558;BME280;43358;50.356;12.456;2023-02-10T06:42:37;97311;;;-7.2;93.5
56558;BME280;43358;50.356;12.456;2023-02-10T06:43:03;97308;;;-7.2;93.8
56558;BME280;43358;50.356;12.456;2023-02-10T06:44:05;97307;;;-7.2;94
56558;BME280;43358;50.356;12.456;2023-02-10T06:45:07;97306;;;-7.2;94.2
56558;BME280;43358;50.356;12.456;2023-02-10T06:46:09;97302;;;-7.2;94.5
56558;BME280;43358;50.356;12.456;2023-02-10T06:49:32;97299;;;-7.2;94.8
56558;BME280;43358;50.356;12.456;2023-02-10T06:49:47;97300;;;-7.2;95
56558;BME280;43358;50.356;12.456;2023-02-10T06:50:50;97301;;;-7.2;95.2
56558;BME280;43358;50.356;12.456;2023-02-10T06:51:52;97305;;;-7.2;95.3
56558;BME280;43358;50.356;12.456;2023-02-10T06:53:56;97307;;;-7.2;95.4
56558;BME280;43358;50.356;12.456;2023-02-10T06:54:59;97307;;;-7.2;95.5
56558;BME280;43358;50.356;12.456;2023-02-10T06:56:01;97309;;;-7.2;95.5
56558;BME280;43358;50.356;12.456;2023-02-10T06:57:03;97313;;;-7.2;95.6
56558;BME280;43358;50.356;12.456;2023-02-10T06:58:06;97313;;;-7.2;95.6
56558;BME280;43358;50.356;12.456;2023-02-10T07:00:51;97312;;;-7.1;95.7
56558;BME280;43358;50.356;12.456;2023-02-10T07:02:30;97310;;;-7.1;95.7
56558;BME280;43358;50.356;12.456;2023-02-10T07:03:32;97307;;;-7.1;95.7
56558;BME280;43358;50.356;12.456;2023-02-10T07:04:34;97310;;;-7.1;95.7
56558;BME280;43358;50.356;12.456;2023-02-10T07:05:36;97312;;;-7.1;95.7
56558;BME280;43358;50.356;12.456;2023-02-10T07:06:39;97312;;;-7.1;95.7
56558;BME280;43358;50.356;12.456;2023-02-10T07:08:43;97308;;;-7.1;95.7
56558;BME280;43358;50.356;12.456;2023-02-10T07:09:45;97311;;;-7;95.7
56558;BME280;43358;50.356;12.456;2023-02-10T07:10:48;97312;;;-7;95.7
56558;BME280;43358;50.356;12.456;2023-02-10T07:11:51;97310;;;-7;95.8
56558;BME280;43358;50.356;12.456;2023-02-10T07:12:53;97314;;;-6.9;95.7
56558;BME280;43358;50.356;12.456;2023-02-10T07:13:55;97315;;;-6.9;95.7
56558;BME280;43358;50.356;12.456;2023-02-10T07:15:59;97319;;;-6.9;95.8
56558;BME280;43358;50.356;12.456;2023-02-10T07:17:02;97323;;;-6.9;95.9
56558;BME280;43358;50.356;12.456;2023-02-10T07:18:03;97322;;;-6.9;95.9
56558;BME280;43358;50.356;12.456;2023-02-10T07:19:05;97322;;;-6.9;95.9
56558;BME280;43358;50.356;12.456;2023-02-10T07:20:09;97322;;;-6.8;95.9
56558;BME280;43358;50.356;12.456;2023-02-10T07:21:10;97321;;;-6.8;95.9
56558;BME280;43358;50.356;12.456;2023-02-10T07:22:13;97323;;;-6.8;96
56558;BME280;43358;50.356;12.456;2023-02-10T07:23:15;97324;;;-6.8;95.8
56558;BME280;43358;50.356;12.456;2023-02-10T07:24:32;97327;;;-6.7;95.8
56558;BME280;43358;50.356;12.456;2023-02-10T07:25:19;97328;;;-6.7;95.7
56558;BME280;43358;50.356;12.456;2023-02-10T07:26:21;97328;;;-6.7;95.6
56558;BME280;43358;50.356;12.456;2023-02-10T07:27:23;97328;;;-6.7;95.5
56558;BME280;43358;50.356;12.456;2023-02-10T07:28:25;97325;;;-6.7;95.5
56558;BME280;43358;50.356;12.456;2023-02-10T07:30:29;97331;;;-6.6;95.6
56558;BME280;43358;50.356;12.456;2023-02-10T07:31:31;97334;;;-6.6;95.7
56558;BME280;43358;50.356;12.456;2023-02-10T07:33:35;97333;;;-6.6;95.7
56558;BME280;43358;50.356;12.456;2023-02-10T07:34:37;97336;;;-6.6;95.8
56558;BME280;43358;50.356;12.456;2023-02-10T07:35:40;97332;;;-6.6;95.9
56558;BME280;43358;50.356;12.456;2023-02-10T07:36:51;97336;;;-6.5;96.2
56558;BME280;43358;50.356;12.456;2023-02-10T07:38:46;97343;;;-6.5;96.2
56558;BME280;43358;50.356;12.456;2023-02-10T07:39:50;97350;;;-6.5;96.1
56558;BME280;43358;50.356;12.456;2023-02-10T07:40:53;97350;;;-6.4;96.1
56558;BME280;43358;50.356;12.456;2023-02-10T07:41:56;97356;;;-6.4;96
56558;BME280;43358;50.356;12.456;2023-02-10T07:44:02;97363;;;-6.3;95.7
56558;BME280;43358;50.356;12.456;2023-02-10T07:45:05;97366;;;-6.2;95.4
56558;BME280;43358;50.356;12.456;2023-02-10T07:46:08;97362;;;-6.2;95.1
56558;BME280;43358;50.356;12.456;2023-02-10T07:47:10;97362;;;-6.2;95
56558;BME280;43358;50.356;12.456;2023-02-10T07:48:12;97363;;;-6.2;95
56558;BME280;43358;50.356;12.456;2023-02-10T07:49:14;97362;;;-6.2;95
56558;BME280;43358;50.356;12.456;2023-02-10T07:50:16;97364;;;-6.1;95.2
56558;BME280;43358;50.356;12.456;2023-02-10T07:51:18;97364;;;-6.1;95.3
56558;BME280;43358;50.356;12.456;2023-02-10T07:52:21;97364;;;-6.1;95.5
56558;BME280;43358;50.356;12.456;2023-02-10T07:53:22;97367;;;-6.1;95.6
56558;BME280;43358;50.356;12.456;2023-02-10T07:54:24;97367;;;-6.1;95.6
56558;BME280;43358;50.356;12.456;2023-02-10T07:55:26;97366;;;-6.1;95.6
56558;BME280;43358;50.356;12.456;2023-02-10T07:56:28;97366;;;-6;95.5
56558;BME280;43358;50.356;12.456;2023-02-10T07:57:30;97366;;;-6;95.4
56558;BME280;43358;50.356;12.456;2023-02-10T07:58:32;97370;;;-5.9;95.2
56558;BME280;43358;50.356;12.456;2023-02-10T07:59:35;97364;;;-5.9;95.2
56558;BME280;43358;50.356;12.456;2023-02-10T08:00:37;97367;;;-5.9;95.3
56558;BME280;43358;50.356;12.456;2023-02-10T08:01:39;97368;;;-5.8;95.2
56558;BME280;43358;50.356;12.456;2023-02-10T08:02:41;97372;;;-5.7;94.8
56558;BME280;43358;50.356;12.456;2023-02-10T08:03:44;97375;;;-5.7;94.3
56558;BME280;43358;50.356;12.456;2023-02-10T08:04:46;97370;;;-5.7;94.3
56558;BME280;43358;50.356;12.456;2023-02-10T08:06:50;97372;;;-5.6;94.3
56558;BME280;43358;50.356;12.456;2023-02-10T08:10:15;97371;;;-5.6;94
56558;BME280;43358;50.356;12.456;2023-02-10T08:11:17;97373;;;-5.5;93.9
56558;BME280;43358;50.356;12.456;2023-02-10T08:12:19;97368;;;-5.5;93.8
56558;BME280;43358;50.356;12.456;2023-02-10T08:13:21;97368;;;-5.5;93.9
56558;BME280;43358;50.356;12.456;2023-02-10T08:14:23;97365;;;-5.5;94
56558;BME280;43358;50.356;12.456;2023-02-10T08:15:25;97364;;;-5.5;94.1
56558;BME280;43358;50.356;12.456;2023-02-10T08:16:27;97366;;;-5.5;94.3
56558;BME280;43358;50.356;12.456;2023-02-10T08:17:29;97368;;;-5.5;94.6
56558;BME280;43358;50.356;12.456;2023-02-10T08:18:32;97369;;;-5.5;94.9
56558;BME280;43358;50.356;12.456;2023-02-10T08:19:34;97370;;;-5.5;95
56558;BME280;43358;50.356;12.456;2023-02-10T08:20:36;97373;;;-5.5;95.1
56558;BME280;43358;50.356;12.456;2023-02-10T08:27:29;97370;;;-5.4;95.2
56558;BME280;43358;50.356;12.456;2023-02-10T08:28:31;97373;;;-5.3;94.7
56558;BME280;43358;50.356;12.456;2023-02-10T08:30:51;97370;;;-5.3;94.6
56558;BME280;43358;50.356;12.456;2023-02-10T08:31:51;97371;;;-5.3;94.6
56558;BME280;43358;50.356;12.456;2023-02-10T08:32:51;97369;;;-5.2;94.7
56558;BME280;43358;50.356;12.456;2023-02-10T08:33:51;97374;;;-5.2;94.9
56558;BME280;43358;50.356;12.456;2023-02-10T08:34:51;97375;;;-5.2;95.3
56558;BME280;43358;50.356;12.456;2023-02-10T08:35:51;97373;;;-5.1;95.4
56558;BME280;43358;50.356;12.456;2023-02-10T08:36:51;97376;;;-5.1;95.6
56558;BME280;43358;50.356;12.456;2023-02-10T08:37:52;97373;;;-5.1;95.6
56558;BME280;43358;50.356;12.456;2023-02-10T08:38:54;97369;;;-5;95.3
56558;BME280;43358;50.356;12.456;2023-02-10T08:39:56;97372;;;-5;94.8
56558;BME280;43358;50.356;12.456;2023-02-10T08:40:59;97369;;;-4.9;94.6
56558;BME280;43358;50.356;12.456;2023-02-10T08:42:01;97372;;;-4.9;94.5
56558;BME280;43358;50.356;12.456;2023-02-10T08:44:06;97375;;;-4.9;94.4
56558;BME280;43358;50.356;12.456;2023-02-10T08:45:08;97375;;;-4.9;94.3
56558;BME280;43358;50.356;12.456;2023-02-10T08:46:51;97375;;;-4.8;94.4
56558;BME280;43358;50.356;12.456;2023-02-10T08:47:51;97370;;;-4.7;94.4
56558;BME280;43358;50.356;12.456;2023-02-10T08:48:51;97367;;;-4.7;94.3
56558;BME280;43358;50.356;12.456;2023-02-10T08:49:51;97366;;;-4.7;94.1
56558;BME280;43358;50.356;12.456;2023-02-10T08:50:51;97363;;;-4.6;94
56558;BME280;43358;50.356;12.456;2023-02-10T08:51:51;97367;;;-4.6;93.9
56558;BME280;43358;50.356;12.456;2023-02-10T08:52:51;97360;;;-4.6;93.9
56558;BME280;43358;50.356;12.456;2023-02-10T08:53:51;97357;;;-4.6;93.9
56558;BME280;43358;50.356;12.456;2023-02-10T08:54:51;97359;;;-4.5;93.8
56558;BME280;43358;50.356;12.456;2023-02-10T08:55:55;97357;;;-4.5;93.8
56558;BME280;43358;50.356;12.456;2023-02-10T08:56:52;97355;;;-4.4;93.8
56558;BME280;43358;50.356;12.456;2023-02-10T08:57:51;97356;;;-4.4;93.9
56558;BME280;43358;50.356;12.456;2023-02-10T08:58:51;97351;;;-4.4;93.8
56558;BME280;43358;50.356;12.456;2023-02-10T08:59:51;97351;;;-4.4;93.6
56558;BME280;43358;50.356;12.456;2023-02-10T09:00:51;97354;;;-4.3;93.8
56558;BME280;43358;50.356;12.456;2023-02-10T09:01:51;97355;;;-4.3;93.8
56558;BME280;43358;50.356;12.456;2023-02-10T09:02:51;97356;;;-4.2;93.8
56558;BME280;43358;50.356;12.456;2023-02-10T09:04:02;97358;;;-4.2;94
56558;BME280;43358;50.356;12.456;2023-02-10T09:04:51;97360;;;-4.1;94
56558;BME280;43358;50.356;12.456;2023-02-10T09:05:55;97360;;;-4.1;94.2
56558;BME280;43358;50.356;12.456;2023-02-10T09:06:57;97358;;;-4;94.4
56558;BME280;43358;50.356;12.456;2023-02-10T09:07:59;97358;;;-3.9;94.1
56558;BME280;43358;50.356;12.456;2023-02-10T09:09:01;97361;;;-3.8;93.8
56558;BME280;43358;50.356;12.456;2023-02-10T09:10:03;97360;;;-3.8;93.4
56558;BME280;43358;50.356;12.456;2023-02-10T09:11:05;97357;;;-3.7;93.2
56558;BME280;43358;50.356;12.456;2023-02-10T09:12:07;97357;;;-3.6;92.6
56558;BME280;43358;50.356;12.456;2023-02-10T09:13:10;97359;;;-3.5;92.3
56558;BME280;43358;50.356;12.456;2023-02-10T09:14:12;97358;;;-3.5;92.1
56558;BME280;43358;50.356;12.456;2023-02-10T09:15:14;97361;;;-3.5;92
56558;BME280;43358;50.356;12.456;2023-02-10T09:16:16;97361;;;-3.4;92
56558;BME280;43358;50.356;12.456;2023-02-10T09:17:19;97362;;;-3.4;92.1
56558;BME280;43358;50.356;12.456;2023-02-10T09:18:21;97362;;;-3.4;92.2
56558;BME280;43358;50.356;12.456;2023-02-10T09:19:23;97361;;;-3.4;92.2
56558;BME280;43358;50.356;12.456;2023-02-10T09:20:26;97364;;;-3.3;92.3
56558;BME280;43358;50.356;12.456;2023-02-10T09:21:28;97361;;;-3.2;92.1
56558;BME280;43358;50.356;12.456;2023-02-10T09:22:30;97364;;;-3.2;92.1
56558;BME280;43358;50.356;12.456;2023-02-10T09:23:32;97365;;;-3.2;92.4
56558;BME280;43358;50.356;12.456;2023-02-10T09:24:34;97365;;;-3.1;92.4
56558;BME280;43358;50.356;12.456;2023-02-10T09:25:37;97366;;;-3;92
56558;BME280;43358;50.356;12.456;2023-02-10T09:27:51;97367;;;-2.9;91.3
56558;BME280;43358;50.356;12.456;2023-02-10T09:29:54;97368;;;-2.7;90.4
56558;BME280;43358;50.356;12.456;2023-02-10T09:30:56;97371;;;-2.6;90.2
56558;BME280;43358;50.356;12.456;2023-02-10T09:31:58;97372;;;-2.6;90.3
56558;BME280;43358;50.356;12.456;2023-02-10T09:33:01;97378;;;-2.6;90.5
56558;BME280;43358;50.356;12.456;2023-02-10T09:34:03;97379;;;-2.5;90.2
56558;BME280;43358;50.356;12.456;2023-02-10T09:35:05;97383;;;-2.5;90.2
56558;BME280;43358;50.356;12.456;2023-02-10T09:36:20;97381;;;-2.5;90.3
56558;BME280;43358;50.356;12.456;2023-02-10T09:37:09;97380;;;-2.5;90.4
56558;BME280;43358;50.356;12.456;2023-02-10T09:38:12;97384;;;-2.4;90.5
56558;BME280;43358;50.356;12.456;2023-02-10T09:39:13;97388;;;-2.3;90.1
56558;BME280;43358;50.356;12.456;2023-02-10T09:40:16;97387;;;-2.3;89.7
56558;BME280;43358;50.356;12.456;2023-02-10T09:41:21;97386;;;-2.3;89.5
56558;BME280;43358;50.356;12.456;2023-02-10T09:42:21;97390;;;-2.2;89.5
56558;BME280;43358;50.356;12.456;2023-02-10T09:44:51;97387;;;-2.2;90
56558;BME280;43358;50.356;12.456;2023-02-10T09:47:52;97387;;;-2;89.4
56558;BME280;43358;50.356;12.456;2023-02-10T09:48:55;97387;;;-2.1;89.4
56558;BME280;43358;50.356;12.456;2023-02-10T09:49:54;97390;;;-2;89.5
56558;BME280;43358;50.356;12.456;2023-02-10T09:50:54;97391;;;-2;89.7
56558;BME280;43358;50.356;12.456;2023-02-10T09:51:52;97390;;;-2;89.8
56558;BME280;43358;50.356;12.456;2023-02-10T09:52:54;97393;;;-1.9;90
56558;BME280;43358;50.356;12.456;2023-02-10T09:53:51;97392;;;-1.9;89.9
56558;BME280;43358;50.356;12.456;2023-02-10T09:56:02;97390;;;-1.7;89.3
56558;BME280;43358;50.356;12.456;2023-02-10T09:57:05;97392;;;-1.6;88.9
56558;BME280;43358;50.356;12.456;2023-02-10T09:58:10;97393;;;-1.5;88.5
56558;BME280;43358;50.356;12.456;2023-02-10T10:10:10;97390;;;-0.9;86.9
56558;BME280;43358;50.356;12.456;2023-02-10T10:11:12;97392;;;-0.9;86.9
56558;BME280;43358;50.356;12.456;2023-02-10T10:11:58;97391;;;-0.8;86.9
56558;BME280;43358;50.356;12.456;2023-02-10T10:13:01;97390;;;-0.8;87.2
56558;BME280;43358;50.356;12.456;2023-02-10T10:14:03;97392;;;-0.8;87.3
56558;BME280;43358;50.356;12.456;2023-02-10T10:15:06;97389;;;-0.8;87.4
56558;BME280;43358;50.356;12.456;2023-02-10T10:16:12;97383;;;-0.8;87.4
56558;BME280;43358;50.356;12.456;2023-02-10T10:18:13;97382;;;-0.7;87.1
56558;BME280;43358;50.356;12.456;2023-02-10T10:19:16;97381;;;-0.7;86.9
56558;BME280;43358;50.356;12.456;2023-02-10T10:22:48;97378;;;-0.7;86.9
56558;BME280;43358;50.356;12.456;2023-02-10T10:23:54;97380;;;-0.7;87.4
56558;BME280;43358;50.356;12.456;2023-02-10T10:27:11;97372;;;-0.6;86.7
56558;BME280;43358;50.356;12.456;2023-02-10T10:43:36;97366;;;-0.2;91.2
56558;BME280;43358;50.356;12.456;2023-02-10T10:43:36;97368;;;-0.1;91
56558;BME280;43358;50.356;12.456;2023-02-10T10:52:39;97363;;;0.6;88.5
56558;BME280;43358;50.356;12.456;2023-02-10T10:52:53;97362;;;0.7;88.5
56558;BME280;43358;50.356;12.456;2023-02-10T10:55:57;97359;;;0.7;88.3
56558;BME280;43358;50.356;12.456;2023-02-10T10:56:01;97362;;;0.7;88.1
56558;BME280;43358;50.356;12.456;2023-02-10T10:57:03;97358;;;0.8;88
56558;BME280;43358;50.356;12.456;2023-02-10T10:59:10;97356;;;0.9;87.8
56558;BME280;43358;50.356;12.456;2023-02-10T10:59:13;97356;;;0.9;87.6
56558;BME280;43358;50.356;12.456;2023-02-10T11:00:17;97353;;;0.9;87.5
56558;BME280;43358;50.356;12.456;2023-02-10T11:01:17;97351;;;0.9;87.3
56558;BME280;43358;50.356;12.456;2023-02-10T11:02:19;97348;;;0.9;87.4
56558;BME280;43358;50.356;12.456;2023-02-10T11:04:01;97350;;;0.9;87.5
56558;BME280;43358;50.356;12.456;2023-02-10T11:04:59;97357;;;0.9;87.4
56558;BME280;43358;50.356;12.456;2023-02-10T11:06:32;97354;;;0.9;87.6
56558;BME280;43358;50.356;12.456;2023-02-10T11:07:32;97355;;;1;87.7
56558;BME280;43358;50.356;12.456;2023-02-10T11:08:37;97350;;;1;87.4
56558;BME280;43358;50.356;12.456;2023-02-10T11:09:39;97354;;;1;87.1
56558;BME280;43358;50.356;12.456;2023-02-10T11:10:46;97356;;;1.1;87.1
56558;BME280;43358;50.356;12.456;2023-02-10T11:11:42;97361;;;1.1;87
56558;BME280;43358;50.356;12.456;2023-02-10T11:12:44;97358;;;1.1;87
56558;BME280;43358;50.356;12.456;2023-02-10T11:13:48;97358;;;1.1;87
56558;BME280;43358;50.356;12.456;2023-02-10T11:14:49;97357;;;1.2;86.8